sensor_id;sensor_type;location;lat;lon;timestamp;P1;durP1;ratioP1;P2;durP2;ratioP2
46845;SDS011;33947;46.804;134.252;2022-08-04T00:02:03;18.35;;;5.43;;
46845;SDS011;33947;46.804;134.252;2022-08-04T00:05:22;11.55;;;4.93;;
46845;SDS011;33947;46.804;134.252;2022-08-04T00:08:44;7.38;;;4.57;;
46845;SDS011;33947;46.804;134.252;2022-08-04T00:11:53;19.25;;;5.95;;
46845;SDS011;33947;46.804;134.252;2022-08-04T00:15:02;10.95;;;4.55;;
46845;SDS011;33947;46.804;134.252;2022-08-04T00:18:09;6.78;;;4.97;;
46845;SDS011;33947;46.804;134.252;2022-08-04T00:21:18;10.18;;;5.05;;
46845;SDS011;33947;46.804;134.252;2022-08-04T00:24:28;7.90;;;5.10;;
46845;SDS011;33947;46.804;134.252;2022-08-04T00:27:34;10.10;;;4.65;;
46845;SDS011;33947;46.804;134.252;2022-08-04T00:30:40;5.95;;;4.55;;
46845;SDS011;33947;46.804;134.252;2022-08-04T00:33:45;6.25;;;4.55;;
46845;SDS011;33947;46.804;134.252;2022-08-04T00:36:52;10.10;;;4.30;;
46845;SDS011;33947;46.804;134.252;2022-08-04T00:39:58;16.45;;;6.05;;
46845;SDS011;33947;46.804;134.252;2022-08-04T00:43:09;6.43;;;4.28;;
46845;SDS011;33947;46.804;134.252;2022-08-04T00:49:39;5.28;;;4.30;;
46845;SDS011;33947;46.804;134.252;2022-08-04T00:53:07;14.70;;;4.68;;
46845;SDS011;33947;46.804;134.252;2022-08-04T01:06:21;7.90;;;4.95;;
46845;SDS011;33947;46.804;134.252;2022-08-04T01:16:17;7.40;;;5.05;;
46845;SDS011;33947;46.804;134.252;2022-08-04T01:30:00;15.05;;;5.72;;
46845;SDS011;33947;46.804;134.252;2022-08-04T01:33:08;7.15;;;4.72;;
46845;SDS011;33947;46.804;134.252;2022-08-04T01:36:17;29.70;;;6.32;;
46845;SDS011;33947;46.804;134.252;2022-08-04T01:39:30;10.27;;;4.88;;
46845;SDS011;33947;46.804;134.252;2022-08-04T01:42:44;11.77;;;5.60;;
46845;SDS011;33947;46.804;134.252;2022-08-04T01:45:55;10.23;;;5.78;;
46845;SDS011;33947;46.804;134.252;2022-08-04T01:49:02;10.57;;;5.13;;
46845;SDS011;33947;46.804;134.252;2022-08-04T01:52:09;11.05;;;5.40;;
46845;SDS011;33947;46.804;134.252;2022-08-04T01:55:14;9.05;;;4.90;;
46845;SDS011;33947;46.804;134.252;2022-08-04T01:58:20;16.60;;;5.95;;
46845;SDS011;33947;46.804;134.252;2022-08-04T02:01:27;29.15;;;7.30;;
46845;SDS011;33947;46.804;134.252;2022-08-04T02:04:32;8.02;;;5.20;;
46845;SDS011;33947;46.804;134.252;2022-08-04T02:08:03;11.63;;;6.10;;
46845;SDS011;33947;46.804;134.252;2022-08-04T02:11:22;8.65;;;5.32;;
46845;SDS011;33947;46.804;134.252;2022-08-04T02:14:31;8.30;;;4.97;;
46845;SDS011;33947;46.804;134.252;2022-08-04T02:18:03;11.48;;;5.80;;
46845;SDS011;33947;46.804;134.252;2022-08-04T02:21:14;9.15;;;5.63;;
46845;SDS011;33947;46.804;134.252;2022-08-04T02:24:24;13.73;;;6.45;;
46845;SDS011;33947;46.804;134.252;2022-08-04T02:27:32;12.00;;;5.88;;
46845;SDS011;33947;46.804;134.252;2022-08-04T02:37:38;10.93;;;6.38;;
46845;SDS011;33947;46.804;134.252;2022-08-04T02:40:59;10.95;;;6.40;;
46845;SDS011;33947;46.804;134.252;2022-08-04T02:44:08;11.57;;;6.78;;
46845;SDS011;33947;46.804;134.252;2022-08-04T02:47:13;13.27;;;6.50;;
46845;SDS011;33947;46.804;134.252;2022-08-04T02:50:20;18.92;;;6.97;;
46845;SDS011;33947;46.804;134.252;2022-08-04T02:53:30;17.27;;;7.45;;
46845;SDS011;33947;46.804;134.252;2022-08-04T02:56:40;11.60;;;6.68;;
46845;SDS011;33947;46.804;134.252;2022-08-04T02:59:59;12.98;;;7.00;;
46845;SDS011;33947;46.804;134.252;2022-08-04T03:03:25;17.10;;;7.32;;
46845;SDS011;33947;46.804;134.252;2022-08-04T03:06:48;16.05;;;8.10;;
46845;SDS011;33947;46.804;134.252;2022-08-04T03:10:18;13.07;;;7.25;;
46845;SDS011;33947;46.804;134.252;2022-08-04T03:28:07;12.65;;;7.13;;
46845;SDS011;33947;46.804;134.252;2022-08-04T03:31:31;12.07;;;7.90;;
46845;SDS011;33947;46.804;134.252;2022-08-04T07:33:22;5.97;;;4.22;;
46845;SDS011;33947;46.804;134.252;2022-08-04T07:36:28;7.30;;;4.50;;
46845;SDS011;33947;46.804;134.252;2022-08-04T07:39:51;9.07;;;3.97;;
46845;SDS011;33947;46.804;134.252;2022-08-04T07:42:57;8.60;;;4.00;;
46845;SDS011;33947;46.804;134.252;2022-08-04T07:46:03;5.57;;;4.10;;
46845;SDS011;33947;46.804;134.252;2022-08-04T07:49:08;6.93;;;3.92;;
46845;SDS011;33947;46.804;134.252;2022-08-04T07:52:33;6.53;;;4.07;;
46845;SDS011;33947;46.804;134.252;2022-08-04T07:55:43;6.00;;;4.25;;
46845;SDS011;33947;46.804;134.252;2022-08-04T07:58:49;6.85;;;4.45;;
46845;SDS011;33947;46.804;134.252;2022-08-04T08:01:54;6.05;;;4.18;;
46845;SDS011;33947;46.804;134.252;2022-08-04T08:05:03;8.55;;;4.43;;
46845;SDS011;33947;46.804;134.252;2022-08-04T08:08:10;11.63;;;5.00;;
46845;SDS011;33947;46.804;134.252;2022-08-04T08:11:15;5.95;;;4.40;;
46845;SDS011;33947;46.804;134.252;2022-08-04T08:14:21;16.38;;;7.10;;
46845;SDS011;33947;46.804;134.252;2022-08-04T08:17:27;14.07;;;5.10;;
46845;SDS011;33947;46.804;134.252;2022-08-04T08:20:31;11.60;;;4.85;;
46845;SDS011;33947;46.804;134.252;2022-08-04T08:23:36;31.52;;;7.40;;
46845;SDS011;33947;46.804;134.252;2022-08-04T08:26:42;15.07;;;5.47;;
46845;SDS011;33947;46.804;134.252;2022-08-04T08:29:47;7.75;;;4.63;;
46845;SDS011;33947;46.804;134.252;2022-08-04T08:36:03;5.63;;;4.53;;
46845;SDS011;33947;46.804;134.252;2022-08-04T08:39:31;6.05;;;4.90;;
46845;SDS011;33947;46.804;134.252;2022-08-04T08:56:46;7.32;;;4.55;;
46845;SDS011;33947;46.804;134.252;2022-08-04T09:00:13;6.27;;;4.73;;
46845;SDS011;33947;46.804;134.252;2022-08-04T09:10:46;8.73;;;4.78;;
46845;SDS011;33947;46.804;134.252;2022-08-04T09:14:00;9.48;;;4.80;;
46845;SDS011;33947;46.804;134.252;2022-08-04T09:17:17;7.22;;;4.35;;
46845;SDS011;33947;46.804;134.252;2022-08-04T09:23:57;7.20;;;5.03;;
46845;SDS011;33947;46.804;134.252;2022-08-04T09:27:43;9.63;;;4.82;;
46845;SDS011;33947;46.804;134.252;2022-08-04T09:34:10;6.43;;;4.55;;
46845;SDS011;33947;46.804;134.252;2022-08-04T09:37:59;11.35;;;5.38;;
46845;SDS011;33947;46.804;134.252;2022-08-04T09:41:22;8.23;;;5.00;;
46845;SDS011;33947;46.804;134.252;2022-08-04T09:45:02;11.93;;;5.53;;
46845;SDS011;33947;46.804;134.252;2022-08-04T09:51:49;12.10;;;5.03;;
46845;SDS011;33947;46.804;134.252;2022-08-04T09:55:13;11.15;;;5.10;;
46845;SDS011;33947;46.804;134.252;2022-08-04T09:58:38;8.70;;;4.78;;
46845;SDS011;33947;46.804;134.252;2022-08-04T10:01:44;9.75;;;5.78;;
46845;SDS011;33947;46.804;134.252;2022-08-04T10:05:02;9.98;;;6.80;;
46845;SDS011;33947;46.804;134.252;2022-08-04T10:15:16;11.68;;;6.00;;
46845;SDS011;33947;46.804;134.252;2022-08-04T10:25:41;26.60;;;15.35;;
46845;SDS011;33947;46.804;134.252;2022-08-04T10:29:11;26.40;;;15.65;;
46845;SDS011;33947;46.804;134.252;2022-08-04T10:32:22;28.08;;;12.43;;
46845;SDS011;33947;46.804;134.252;2022-08-04T10:35:59;21.05;;;10.65;;
46845;SDS011;33947;46.804;134.252;2022-08-04T10:39:12;17.50;;;10.55;;
46845;SDS011;33947;46.804;134.252;2022-08-04T10:42:41;13.15;;;9.02;;
46845;SDS011;33947;46.804;134.252;2022-08-04T10:49:21;14.20;;;7.50;;
46845;SDS011;33947;46.804;134.252;2022-08-04T10:52:43;18.15;;;7.90;;
46845;SDS011;33947;46.804;134.252;2022-08-04T10:56:33;11.13;;;6.65;;
46845;SDS011;33947;46.804;134.252;2022-08-04T10:59:40;14.27;;;8.05;;
46845;SDS011;33947;46.804;134.252;2022-08-04T11:06:26;14.85;;;7.60;;
46845;SDS011;33947;46.804;134.252;2022-08-04T11:09:32;19.83;;;7.45;;
46845;SDS011;33947;46.804;134.252;2022-08-04T11:12:37;22.20;;;11.30;;
46845;SDS011;33947;46.804;134.252;2022-08-04T11:15:47;19.40;;;11.13;;
46845;SDS011;33947;46.804;134.252;2022-08-04T11:19:05;26.27;;;15.23;;
46845;SDS011;33947;46.804;134.252;2022-08-04T11:22:17;18.58;;;11.90;;
46845;SDS011;33947;46.804;134.252;2022-08-04T11:25:31;22.10;;;12.45;;
46845;SDS011;33947;46.804;134.252;2022-08-04T11:29:00;25.52;;;12.70;;
46845;SDS011;33947;46.804;134.252;2022-08-04T11:32:41;21.55;;;12.30;;
46845;SDS011;33947;46.804;134.252;2022-08-04T11:42:41;22.20;;;13.25;;
46845;SDS011;33947;46.804;134.252;2022-08-04T11:46:10;25.63;;;14.13;;
46845;SDS011;33947;46.804;134.252;2022-08-04T11:53:14;28.23;;;16.10;;
46845;SDS011;33947;46.804;134.252;2022-08-04T11:56:22;25.85;;;16.08;;
46845;SDS011;33947;46.804;134.252;2022-08-04T11:59:39;25.10;;;15.60;;
46845;SDS011;33947;46.804;134.252;2022-08-04T12:16:35;37.75;;;16.70;;
46845;SDS011;33947;46.804;134.252;2022-08-04T12:19:50;39.58;;;15.73;;
46845;SDS011;33947;46.804;134.252;2022-08-04T12:23:22;25.88;;;14.10;;
46845;SDS011;33947;46.804;134.252;2022-08-04T12:26:41;23.33;;;13.88;;
46845;SDS011;33947;46.804;134.252;2022-08-04T12:29:53;23.58;;;13.32;;
46845;SDS011;33947;46.804;134.252;2022-08-04T12:36:53;20.52;;;14.02;;
46845;SDS011;33947;46.804;134.252;2022-08-04T12:40:07;26.95;;;13.95;;
46845;SDS011;33947;46.804;134.252;2022-08-04T12:43:38;22.70;;;12.63;;
46845;SDS011;33947;46.804;134.252;2022-08-04T12:46:45;23.58;;;10.38;;
46845;SDS011;33947;46.804;134.252;2022-08-04T12:49:51;22.90;;;14.35;;
46845;SDS011;33947;46.804;134.252;2022-08-04T12:53:11;28.67;;;12.88;;
46845;SDS011;33947;46.804;134.252;2022-08-04T12:56:33;22.65;;;13.23;;
46845;SDS011;33947;46.804;134.252;2022-08-04T12:59:38;22.80;;;11.80;;
46845;SDS011;33947;46.804;134.252;2022-08-04T13:02:46;20.95;;;10.82;;
46845;SDS011;33947;46.804;134.252;2022-08-04T13:05:52;17.65;;;10.85;;
46845;SDS011;33947;46.804;134.252;2022-08-04T13:09:03;21.10;;;10.55;;
46845;SDS011;33947;46.804;134.252;2022-08-04T13:12:14;16.55;;;11.32;;
46845;SDS011;33947;46.804;134.252;2022-08-04T13:15:35;18.45;;;11.35;;
46845;SDS011;33947;46.804;134.252;2022-08-04T13:18:58;19.17;;;11.40;;
46845;SDS011;33947;46.804;134.252;2022-08-04T13:22:07;18.10;;;11.38;;
46845;SDS011;33947;46.804;134.252;2022-08-04T13:25:13;17.63;;;10.90;;
46845;SDS011;33947;46.804;134.252;2022-08-04T13:28:41;16.17;;;10.18;;
46845;SDS011;33947;46.804;134.252;2022-08-04T13:31:48;16.30;;;10.23;;
46845;SDS011;33947;46.804;134.252;2022-08-04T13:34:55;20.05;;;10.75;;
46845;SDS011;33947;46.804;134.252;2022-08-04T13:38:05;20.77;;;10.80;;
46845;SDS011;33947;46.804;134.252;2022-08-04T13:41:15;21.20;;;9.68;;
46845;SDS011;33947;46.804;134.252;2022-08-04T13:44:22;14.95;;;9.77;;
46845;SDS011;33947;46.804;134.252;2022-08-04T13:47:32;21.15;;;10.07;;
46845;SDS011;33947;46.804;134.252;2022-08-04T13:50:40;10.80;;;8.50;;
46845;SDS011;33947;46.804;134.252;2022-08-04T13:53:55;11.40;;;8.73;;
46845;SDS011;33947;46.804;134.252;2022-08-04T13:57:05;11.57;;;8.90;;
46845;SDS011;33947;46.804;134.252;2022-08-04T14:00:25;16.13;;;8.75;;
46845;SDS011;33947;46.804;134.252;2022-08-04T14:07:13;15.48;;;7.88;;
46845;SDS011;33947;46.804;134.252;2022-08-04T14:10:23;17.58;;;7.93;;
46845;SDS011;33947;46.804;134.252;2022-08-04T14:20:06;16.48;;;7.80;;
46845;SDS011;33947;46.804;134.252;2022-08-04T14:23:11;16.27;;;8.15;;
46845;SDS011;33947;46.804;134.252;2022-08-04T14:26:23;15.55;;;8.68;;
46845;SDS011;33947;46.804;134.252;2022-08-04T14:29:36;15.10;;;9.63;;
46845;SDS011;33947;46.804;134.252;2022-08-04T14:36:21;9.65;;;7.55;;
46845;SDS011;33947;46.804;134.252;2022-08-04T14:39:39;13.07;;;7.60;;
46845;SDS011;33947;46.804;134.252;2022-08-04T14:43:05;9.57;;;6.20;;
46845;SDS011;33947;46.804;134.252;2022-08-04T14:46:11;12.60;;;7.22;;
46845;SDS011;33947;46.804;134.252;2022-08-04T14:49:16;10.25;;;6.70;;
46845;SDS011;33947;46.804;134.252;2022-08-04T14:52:22;12.60;;;6.75;;
46845;SDS011;33947;46.804;134.252;2022-08-04T14:55:27;11.13;;;6.40;;
46845;SDS011;33947;46.804;134.252;2022-08-04T14:58:33;13.02;;;6.85;;
46845;SDS011;33947;46.804;134.252;2022-08-04T15:01:41;11.45;;;6.80;;
46845;SDS011;33947;46.804;134.252;2022-08-04T15:05:03;12.60;;;7.22;;
46845;SDS011;33947;46.804;134.252;2022-08-04T15:11:35;13.73;;;7.72;;
46845;SDS011;33947;46.804;134.252;2022-08-04T15:14:45;9.43;;;6.50;;
46845;SDS011;33947;46.804;134.252;2022-08-04T15:17:52;13.98;;;7.38;;
46845;SDS011;33947;46.804;134.252;2022-08-04T15:20:57;10.63;;;6.78;;
46845;SDS011;33947;46.804;134.252;2022-08-04T15:24:04;17.60;;;6.60;;
46845;SDS011;33947;46.804;134.252;2022-08-04T15:27:09;15.57;;;7.15;;
46845;SDS011;33947;46.804;134.252;2022-08-04T15:30:16;9.43;;;6.72;;
46845;SDS011;33947;46.804;134.252;2022-08-04T15:33:22;11.35;;;7.35;;
46845;SDS011;33947;46.804;134.252;2022-08-04T15:40:12;16.60;;;7.60;;
46845;SDS011;33947;46.804;134.252;2022-08-04T15:43:49;16.83;;;7.93;;
46845;SDS011;33947;46.804;134.252;2022-08-04T15:47:19;20.63;;;7.70;;
46845;SDS011;33947;46.804;134.252;2022-08-04T15:50:24;18.95;;;8.38;;
46845;SDS011;33947;46.804;134.252;2022-08-04T15:53:31;19.95;;;8.63;;
46845;SDS011;33947;46.804;134.252;2022-08-04T15:57:03;22.92;;;7.22;;
46845;SDS011;33947;46.804;134.252;2022-08-04T16:00:09;14.43;;;8.50;;
46845;SDS011;33947;46.804;134.252;2022-08-04T16:07:05;19.20;;;8.40;;
46845;SDS011;33947;46.804;134.252;2022-08-04T16:11:28;11.07;;;7.55;;
46845;SDS011;33947;46.804;134.252;2022-08-04T16:17:24;15.20;;;8.15;;
46845;SDS011;33947;46.804;134.252;2022-08-04T16:20:31;14.20;;;8.75;;
46845;SDS011;33947;46.804;134.252;2022-08-04T16:27:09;15.95;;;7.97;;
46845;SDS011;33947;46.804;134.252;2022-08-04T16:30:15;13.73;;;7.30;;
46845;SDS011;33947;46.804;134.252;2022-08-04T16:33:25;14.43;;;7.75;;
46845;SDS011;33947;46.804;134.252;2022-08-04T16:36:56;8.73;;;6.80;;
46845;SDS011;33947;46.804;134.252;2022-08-04T16:46:44;11.60;;;6.68;;
46845;SDS011;33947;46.804;134.252;2022-08-04T16:50:08;11.07;;;6.10;;
46845;SDS011;33947;46.804;134.252;2022-08-04T16:53:13;9.70;;;5.72;;
46845;SDS011;33947;46.804;134.252;2022-08-04T16:56:41;9.98;;;5.95;;
46845;SDS011;33947;46.804;134.252;2022-08-04T16:59:50;10.10;;;5.43;;
46845;SDS011;33947;46.804;134.252;2022-08-04T17:02:55;11.25;;;6.60;;
46845;SDS011;33947;46.804;134.252;2022-08-04T17:06:05;12.38;;;6.10;;
46845;SDS011;33947;46.804;134.252;2022-08-04T17:09:16;12.30;;;5.45;;
46845;SDS011;33947;46.804;134.252;2022-08-04T17:12:30;12.45;;;6.15;;
46845;SDS011;33947;46.804;134.252;2022-08-04T17:18:44;9.50;;;5.88;;
46845;SDS011;33947;46.804;134.252;2022-08-04T17:21:51;10.70;;;6.32;;
46845;SDS011;33947;46.804;134.252;2022-08-04T17:25:04;11.63;;;5.85;;
46845;SDS011;33947;46.804;134.252;2022-08-04T17:28:10;15.30;;;6.60;;
46845;SDS011;33947;46.804;134.252;2022-08-04T17:31:32;10.70;;;6.20;;
46845;SDS011;33947;46.804;134.252;2022-08-04T17:34:46;12.25;;;5.95;;
46845;SDS011;33947;46.804;134.252;2022-08-04T17:37:55;10.10;;;5.63;;
46845;SDS011;33947;46.804;134.252;2022-08-04T17:41:00;9.75;;;6.07;;
46845;SDS011;33947;46.804;134.252;2022-08-04T17:44:35;15.10;;;7.40;;
46845;SDS011;33947;46.804;134.252;2022-08-04T17:47:52;8.47;;;6.00;;
46845;SDS011;33947;46.804;134.252;2022-08-04T17:51:10;9.70;;;5.78;;
46845;SDS011;33947;46.804;134.252;2022-08-04T17:54:29;14.13;;;6.25;;
46845;SDS011;33947;46.804;134.252;2022-08-04T17:57:40;11.48;;;6.60;;
46845;SDS011;33947;46.804;134.252;2022-08-04T18:00:57;14.18;;;6.72;;
46845;SDS011;33947;46.804;134.252;2022-08-04T18:04:23;13.15;;;6.47;;
46845;SDS011;33947;46.804;134.252;2022-08-04T18:07:38;14.00;;;6.80;;
46845;SDS011;33947;46.804;134.252;2022-08-04T18:11:04;13.15;;;6.68;;
46845;SDS011;33947;46.804;134.252;2022-08-04T18:14:10;13.82;;;7.10;;
46845;SDS011;33947;46.804;134.252;2022-08-04T18:20:55;14.45;;;6.65;;
46845;SDS011;33947;46.804;134.252;2022-08-04T18:24:05;18.33;;;7.03;;
46845;SDS011;33947;46.804;134.252;2022-08-04T18:27:13;15.15;;;6.25;;
46845;SDS011;33947;46.804;134.252;2022-08-04T18:30:20;15.73;;;6.57;;
46845;SDS011;33947;46.804;134.252;2022-08-04T18:33:46;20.95;;;7.25;;
46845;SDS011;33947;46.804;134.252;2022-08-04T18:36:59;13.68;;;6.28;;
46845;SDS011;33947;46.804;134.252;2022-08-04T18:40:24;11.77;;;6.68;;
46845;SDS011;33947;46.804;134.252;2022-08-04T18:43:43;12.05;;;6.82;;
46845;SDS011;33947;46.804;134.252;2022-08-04T18:46:58;11.95;;;7.40;;
46845;SDS011;33947;46.804;134.252;2022-08-04T18:50:24;18.00;;;6.80;;
46845;SDS011;33947;46.804;134.252;2022-08-04T18:53:49;15.05;;;7.82;;
46845;SDS011;33947;46.804;134.252;2022-08-04T18:57:00;26.92;;;9.70;;
46845;SDS011;33947;46.804;134.252;2022-08-04T19:00:25;14.77;;;8.20;;
46845;SDS011;33947;46.804;134.252;2022-08-04T19:03:30;20.60;;;9.47;;
46845;SDS011;33947;46.804;134.252;2022-08-04T19:06:35;15.85;;;8.57;;
46845;SDS011;33947;46.804;134.252;2022-08-04T19:09:41;23.40;;;9.15;;
46845;SDS011;33947;46.804;134.252;2022-08-04T19:12:54;19.90;;;8.25;;
46845;SDS011;33947;46.804;134.252;2022-08-04T19:16:01;16.33;;;9.40;;
46845;SDS011;33947;46.804;134.252;2022-08-04T19:19:18;14.50;;;8.00;;
46845;SDS011;33947;46.804;134.252;2022-08-04T19:22:43;17.83;;;8.77;;
46845;SDS011;33947;46.804;134.252;2022-08-04T19:26:08;14.68;;;8.50;;
46845;SDS011;33947;46.804;134.252;2022-08-04T19:29:29;14.00;;;8.70;;
46845;SDS011;33947;46.804;134.252;2022-08-04T19:32:42;22.27;;;10.77;;
46845;SDS011;33947;46.804;134.252;2022-08-04T19:35:50;17.85;;;10.10;;
46845;SDS011;33947;46.804;134.252;2022-08-04T19:38:56;15.00;;;10.82;;
46845;SDS011;33947;46.804;134.252;2022-08-04T19:42:03;16.42;;;10.52;;
46845;SDS011;33947;46.804;134.252;2022-08-04T19:45:09;14.32;;;9.70;;
46845;SDS011;33947;46.804;134.252;2022-08-04T19:48:17;13.27;;;10.45;;
46845;SDS011;33947;46.804;134.252;2022-08-04T19:51:25;17.15;;;9.82;;
46845;SDS011;33947;46.804;134.252;2022-08-04T19:54:30;15.57;;;9.80;;
46845;SDS011;33947;46.804;134.252;2022-08-04T19:57:37;12.70;;;9.45;;
46845;SDS011;33947;46.804;134.252;2022-08-04T20:00:51;18.33;;;10.23;;
46845;SDS011;33947;46.804;134.252;2022-08-04T20:03:57;12.27;;;9.80;;
46845;SDS011;33947;46.804;134.252;2022-08-04T20:10:17;21.85;;;11.45;;
46845;SDS011;33947;46.804;134.252;2022-08-04T20:13:25;15.88;;;11.35;;
46845;SDS011;33947;46.804;134.252;2022-08-04T20:16:40;19.55;;;11.75;;
46845;SDS011;33947;46.804;134.252;2022-08-04T20:19:45;16.45;;;10.65;;
46845;SDS011;33947;46.804;134.252;2022-08-04T20:22:53;13.23;;;9.57;;
46845;SDS011;33947;46.804;134.252;2022-08-04T20:25:58;14.13;;;10.05;;
46845;SDS011;33947;46.804;134.252;2022-08-04T20:29:02;16.10;;;9.50;;
46845;SDS011;33947;46.804;134.252;2022-08-04T20:32:09;12.60;;;9.60;;
46845;SDS011;33947;46.804;134.252;2022-08-04T20:35:16;13.25;;;9.60;;
46845;SDS011;33947;46.804;134.252;2022-08-04T20:38:21;19.50;;;9.25;;
46845;SDS011;33947;46.804;134.252;2022-08-04T20:41:36;15.48;;;9.45;;
46845;SDS011;33947;46.804;134.252;2022-08-04T20:44:46;13.02;;;9.70;;
46845;SDS011;33947;46.804;134.252;2022-08-04T20:47:51;16.95;;;9.98;;
46845;SDS011;33947;46.804;134.252;2022-08-04T20:50:56;13.02;;;9.57;;
46845;SDS011;33947;46.804;134.252;2022-08-04T20:54:02;15.57;;;10.23;;
46845;SDS011;33947;46.804;134.252;2022-08-04T20:57:24;12.35;;;9.07;;
46845;SDS011;33947;46.804;134.252;2022-08-04T21:00:48;18.60;;;10.40;;
46845;SDS011;33947;46.804;134.252;2022-08-04T21:03:55;14.57;;;9.70;;
46845;SDS011;33947;46.804;134.252;2022-08-04T21:07:30;13.53;;;9.63;;
46845;SDS011;33947;46.804;134.252;2022-08-04T21:10:43;13.13;;;8.95;;
46845;SDS011;33947;46.804;134.252;2022-08-04T21:13:49;15.75;;;9.30;;
46845;SDS011;33947;46.804;134.252;2022-08-04T21:16:55;15.32;;;12.02;;
46845;SDS011;33947;46.804;134.252;2022-08-04T21:20:01;13.55;;;8.45;;
46845;SDS011;33947;46.804;134.252;2022-08-04T21:23:07;13.63;;;8.30;;
46845;SDS011;33947;46.804;134.252;2022-08-04T21:29:27;12.63;;;9.03;;
46845;SDS011;33947;46.804;134.252;2022-08-04T21:32:38;13.50;;;8.68;;
46845;SDS011;33947;46.804;134.252;2022-08-04T21:35:43;13.73;;;8.63;;
46845;SDS011;33947;46.804;134.252;2022-08-04T21:38:50;15.20;;;9.02;;
46845;SDS011;33947;46.804;134.252;2022-08-04T21:41:55;12.80;;;8.68;;
46845;SDS011;33947;46.804;134.252;2022-08-04T21:45:20;25.38;;;10.13;;
46845;SDS011;33947;46.804;134.252;2022-08-04T21:48:37;16.30;;;9.52;;
46845;SDS011;33947;46.804;134.252;2022-08-04T21:51:44;13.15;;;9.32;;
46845;SDS011;33947;46.804;134.252;2022-08-04T21:55:03;16.85;;;9.45;;
46845;SDS011;33947;46.804;134.252;2022-08-04T21:58:09;15.63;;;9.05;;
46845;SDS011;33947;46.804;134.252;2022-08-04T22:01:15;13.60;;;9.15;;
46845;SDS011;33947;46.804;134.252;2022-08-04T22:04:40;18.80;;;9.45;;
46845;SDS011;33947;46.804;134.252;2022-08-04T22:07:46;11.70;;;7.75;;
46845;SDS011;33947;46.804;134.252;2022-08-04T22:10:53;14.70;;;8.55;;
46845;SDS011;33947;46.804;134.252;2022-08-04T22:14:06;15.60;;;8.32;;
46845;SDS011;33947;46.804;134.252;2022-08-04T22:17:13;12.68;;;7.53;;
46845;SDS011;33947;46.804;134.252;2022-08-04T22:20:20;15.68;;;8.80;;
46845;SDS011;33947;46.804;134.252;2022-08-04T22:23:30;18.60;;;9.40;;
46845;SDS011;33947;46.804;134.252;2022-08-04T22:26:48;15.32;;;9.68;;
46845;SDS011;33947;46.804;134.252;2022-08-04T22:29:53;10.73;;;7.90;;
46845;SDS011;33947;46.804;134.252;2022-08-04T22:32:59;16.75;;;8.73;;
46845;SDS011;33947;46.804;134.252;2022-08-04T22:36:05;28.40;;;9.02;;
46845;SDS011;33947;46.804;134.252;2022-08-04T22:39:11;21.33;;;9.10;;
46845;SDS011;33947;46.804;134.252;2022-08-04T22:42:17;13.20;;;8.32;;
46845;SDS011;33947;46.804;134.252;2022-08-04T22:45:22;14.73;;;8.20;;
46845;SDS011;33947;46.804;134.252;2022-08-04T22:48:31;19.30;;;9.18;;
46845;SDS011;33947;46.804;134.252;2022-08-04T22:51:37;17.25;;;8.45;;
46845;SDS011;33947;46.804;134.252;2022-08-04T22:54:50;19.23;;;8.55;;
46845;SDS011;33947;46.804;134.252;2022-08-04T22:57:54;14.48;;;7.68;;
46845;SDS011;33947;46.804;134.252;2022-08-04T23:01:11;13.68;;;7.22;;
46845;SDS011;33947;46.804;134.252;2022-08-04T23:04:17;18.63;;;8.50;;
46845;SDS011;33947;46.804;134.252;2022-08-04T23:07:22;12.52;;;8.10;;
46845;SDS011;33947;46.804;134.252;2022-08-04T23:10:46;14.73;;;8.32;;
46845;SDS011;33947;46.804;134.252;2022-08-04T23:13:51;17.52;;;8.48;;
46845;SDS011;33947;46.804;134.252;2022-08-04T23:16:57;15.82;;;9.45;;
46845;SDS011;33947;46.804;134.252;2022-08-04T23:20:02;15.80;;;9.90;;
46845;SDS011;33947;46.804;134.252;2022-08-04T23:23:25;30.77;;;10.27;;
46845;SDS011;33947;46.804;134.252;2022-08-04T23:26:29;15.27;;;8.52;;
46845;SDS011;33947;46.804;134.252;2022-08-04T23:29:34;20.23;;;9.75;;
46845;SDS011;33947;46.804;134.252;2022-08-04T23:32:56;15.90;;;8.85;;
46845;SDS011;33947;46.804;134.252;2022-08-04T23:36:01;17.10;;;9.32;;
46845;SDS011;33947;46.804;134.252;2022-08-04T23:39:06;12.05;;;9.20;;
46845;SDS011;33947;46.804;134.252;2022-08-04T23:42:10;17.77;;;9.93;;
46845;SDS011;33947;46.804;134.252;2022-08-04T23:45:22;11.95;;;9.23;;
46845;SDS011;33947;46.804;134.252;2022-08-04T23:48:47;13.00;;;8.57;;
46845;SDS011;33947;46.804;134.252;2022-08-04T23:51:54;24.52;;;10.25;;
46845;SDS011;33947;46.804;134.252;2022-08-04T23:54:59;18.48;;;10.32;;
46845;SDS011;33947;46.804;134.252;2022-08-04T23:58:05;16.67;;;9.98;;
